Time;durP1;ratioP1;P1;durP2;ratioP2;P2;SDS_P1;SDS_P2;PMS_P1;PMS_P2;Temp;Humidity;BMP_temperature;BMP_pressure;BME280_temperature;BME280_humidity;BME280_pressure;Samples;Min_cycle;Max_cycle;Signal;HPM_P1;HPM_P2
2022/11/03 00:01:58;;;;;;;13.23;10.73;;;12.20;90.70;;;;;;2613912;54;20242;-81
2022/11/03 00:04:23;;;;;;;11.10;9.97;;;12.00;91.20;;;;;;2614252;47;20179;-80
2022/11/03 00:06:53;;;;;;;14.13;10.03;;;12.10;92.20;;;;;;2621023;39;20555;-88
2022/11/03 00:09:20;;;;;;;12.60;10.97;;;12.10;91.90;;;;;;2621937;47;20273;-89
2022/11/03 00:11:49;;;;;;;15.83;11.03;;;12.00;92.80;;;;;;2616178;54;20978;-78
2022/11/03 00:14:15;;;;;;;10.43;9.73;;;12.00;93.80;;;;;;2615145;54;20450;-78
2022/11/03 00:16:42;;;;;;;11.90;10.30;;;12.00;94.20;;;;;;2614100;47;20438;-79
2022/11/03 00:19:09;;;;;;;11.97;10.23;;;12.00;94.30;;;;;;2615115;54;21309;-79
2022/11/03 00:21:36;;;;;;;11.33;10.37;;;12.00;94.90;;;;;;2616437;39;20755;-78
2022/11/03 00:24:02;;;;;;;10.27;9.23;;;12.00;95.80;;;;;;2615773;54;20423;-79
2022/11/03 00:26:29;;;;;;;10.33;9.40;;;12.10;96.20;;;;;;2620015;54;20426;-87
2022/11/03 00:28:59;;;;;;;16.67;9.80;;;12.10;96.30;;;;;;2618586;47;20167;-87
2022/11/03 00:31:30;;;;;;;10.83;9.90;;;12.10;97.20;;;;;;2616425;54;20969;-79
2022/11/03 00:33:57;;;;;;;10.97;9.83;;;12.10;97.20;;;;;;2615491;54;20403;-79
2022/11/03 00:36:26;;;;;;;10.87;9.73;;;12.10;97.60;;;;;;2616219;54;20423;-82
2022/11/03 00:38:52;;;;;;;15.53;10.20;;;12.00;98.10;;;;;;2616930;54;20936;-83
2022/11/03 00:41:19;;;;;;;15.30;10.50;;;12.00;98.90;;;;;;2615436;54;20430;-78
2022/11/03 00:43:46;;;;;;;11.97;10.70;;;12.00;99.40;;;;;;2615030;54;20411;-78
2022/11/03 00:46:12;;;;;;;10.43;9.73;;;12.00;99.20;;;;;;2615284;54;20415;-81
2022/11/03 00:48:38;;;;;;;11.13;10.07;;;12.00;99.70;;;;;;2614801;54;20431;-80
2022/11/03 00:51:11;;;;;;;9.93;9.10;;;12.00;99.80;;;;;;2614665;47;20514;-80
2022/11/03 00:53:48;;;;;;;11.73;10.13;;;12.10;99.90;;;;;;2615177;47;20231;-79
2022/11/03 00:56:24;;;;;;;10.73;9.87;;;12.10;99.90;;;;;;2614567;54;20963;-80
2022/11/03 00:58:52;;;;;;;12.80;9.93;;;12.10;99.90;;;;;;2615058;54;20462;-80
2022/11/03 01:01:23;;;;;;;15.70;9.57;;;12.00;99.90;;;;;;2614609;54;20415;-78
2022/11/03 01:06:52;;;;;;;10.93;9.53;;;12.00;99.90;;;;;;2614171;54;20503;-84
2022/11/03 01:09:18;;;;;;;12.47;10.90;;;12.00;99.90;;;;;;2614936;54;20546;-84
2022/11/03 01:12:12;;;;;;;10.40;9.57;;;12.00;99.90;;;;;;2613595;54;20407;-79
2022/11/03 01:14:43;;;;;;;16.50;9.97;;;12.00;99.90;;;;;;2613900;54;20642;-78
2022/11/03 01:17:12;;;;;;;10.63;9.60;;;12.00;99.90;;;;;;2612667;47;20535;-78
2022/11/03 01:19:38;;;;;;;13.23;10.00;;;12.00;99.90;;;;;;2613126;54;20431;-79
2022/11/03 01:22:04;;;;;;;16.27;9.53;;;12.00;99.90;;;;;;2613777;47;20459;-79
2022/11/03 01:24:30;;;;;;;11.97;9.53;;;12.10;99.90;;;;;;2614721;39;20558;-80
2022/11/03 01:26:56;;;;;;;13.23;9.87;;;12.00;99.90;;;;;;2614700;31;20928;-79
2022/11/03 01:29:22;;;;;;;15.50;10.23;;;12.00;99.90;;;;;;2614756;54;20154;-78
2022/11/03 01:31:48;;;;;;;13.17;9.10;;;12.00;99.90;;;;;;2614155;47;20443;-80
2022/11/03 01:34:20;;;;;;;10.27;9.37;;;12.00;99.90;;;;;;2614887;47;20721;-79
2022/11/03 01:36:46;;;;;;;18.80;10.53;;;12.00;99.90;;;;;;2614809;54;20427;-77
2022/11/03 01:39:14;;;;;;;11.00;9.10;;;12.10;99.90;;;;;;2614096;54;20402;-79
2022/11/03 01:41:41;;;;;;;11.97;9.30;;;12.00;99.90;;;;;;2615217;54;20420;-84
2022/11/03 01:44:06;;;;;;;11.13;10.03;;;12.00;99.90;;;;;;2615066;54;20416;-84
2022/11/03 01:46:38;;;;;;;11.50;9.20;;;12.00;99.90;;;;;;2613561;54;20414;-78
2022/11/03 01:49:13;;;;;;;15.37;9.63;;;11.90;99.90;;;;;;2613537;47;20184;-77
2022/11/03 01:51:43;;;;;;;12.27;9.00;;;11.90;99.90;;;;;;2615024;54;20464;-82
2022/11/03 01:54:13;;;;;;;10.17;9.13;;;11.90;99.90;;;;;;2614929;54;21022;-79
2022/11/03 01:56:45;;;;;;;11.47;8.77;;;11.80;99.90;;;;;;2614775;47;20853;-80
2022/11/03 01:59:11;;;;;;;10.87;8.87;;;11.90;99.90;;;;;;2614892;54;20384;-80
2022/11/03 02:01:37;;;;;;;10.80;8.90;;;11.90;99.90;;;;;;2616451;54;20406;-81
2022/11/03 02:04:09;;;;;;;10.00;9.00;;;11.80;99.90;;;;;;2614759;47;20481;-80
2022/11/03 02:06:36;;;;;;;10.23;9.10;;;11.80;99.90;;;;;;2615438;54;20185;-87
2022/11/03 02:09:05;;;;;;;9.37;8.27;;;11.80;99.90;;;;;;2618667;54;20403;-88
2022/11/03 02:14:17;;;;;;;9.90;8.93;;;11.80;99.90;;;;;;2613966;54;20543;-77
2022/11/03 02:16:48;;;;;;;11.90;9.10;;;11.60;99.90;;;;;;2614059;54;20432;-79
2022/11/03 02:19:35;;;;;;;12.80;9.50;;;11.70;99.90;;;;;;2614294;54;20274;-79
2022/11/03 02:22:18;;;;;;;10.17;9.17;;;11.70;99.90;;;;;;2612494;54;20447;-77
2022/11/03 02:24:51;;;;;;;13.60;9.80;;;11.80;99.90;;;;;;2611287;54;20404;-78
2022/11/03 02:27:19;;;;;;;10.20;8.77;;;11.70;99.90;;;;;;2616975;54;20471;-87
2022/11/03 02:29:45;;;;;;;15.20;9.40;;;11.80;99.90;;;;;;2618426;54;20494;-89
2022/11/03 02:32:42;;;;;;;8.80;8.20;;;11.70;99.90;;;;;;2614460;39;20953;-78
2022/11/03 02:35:20;;;;;;;11.90;10.13;;;11.80;99.90;;;;;;2614003;54;20446;-79
2022/11/03 02:37:50;;;;;;;11.57;8.93;;;11.80;99.90;;;;;;2614360;54;20422;-79
2022/11/03 02:40:22;;;;;;;10.57;9.30;;;11.90;99.90;;;;;;2613751;47;20431;-79
2022/11/03 02:42:51;;;;;;;12.53;8.37;;;11.80;99.90;;;;;;2614350;54;20454;-79
2022/11/03 02:45:20;;;;;;;10.10;9.13;;;11.80;99.90;;;;;;2614044;54;20491;-80
2022/11/03 02:47:47;;;;;;;10.50;9.40;;;11.80;99.90;;;;;;2614414;54;20412;-78
2022/11/03 02:50:14;;;;;;;24.23;9.67;;;11.90;99.90;;;;;;2614048;39;20789;-78
2022/11/03 02:52:39;;;;;;;11.90;8.40;;;11.90;99.90;;;;;;2618007;54;20402;-87
2022/11/03 02:55:20;;;;;;;8.83;7.87;;;11.80;99.90;;;;;;2621276;47;20367;-87
2022/11/03 02:57:56;;;;;;;18.87;9.17;;;11.90;99.90;;;;;;2620658;47;20166;-85
2022/11/03 03:00:22;;;;;;;8.33;7.53;;;12.00;99.90;;;;;;2620265;54;20415;-87
2022/11/03 03:03:01;;;;;;;10.57;9.03;;;11.90;99.90;;;;;;2619034;47;20439;-88
2022/11/03 03:05:33;;;;;;;12.40;8.63;;;11.90;99.90;;;;;;2618231;39;20568;-79
2022/11/03 03:08:04;;;;;;;11.17;8.57;;;11.90;99.90;;;;;;2613336;54;20462;-79
2022/11/03 03:10:39;;;;;;;9.20;8.33;;;11.90;99.90;;;;;;2614495;47;20425;-80
2022/11/03 03:13:06;;;;;;;12.47;6.93;;;11.90;99.90;;;;;;2612577;47;20426;-80
2022/11/03 03:15:51;;;;;;;10.27;8.40;;;11.80;99.90;;;;;;2614512;39;20836;-78
2022/11/03 03:18:37;;;;;;;8.53;7.77;;;11.80;99.90;;;;;;2613329;47;20431;-79
2022/11/03 03:21:11;;;;;;;17.50;8.13;;;11.90;99.90;;;;;;2613762;39;20879;-79
2022/11/03 03:23:48;;;;;;;9.33;8.47;;;11.90;99.90;;;;;;2612674;54;20479;-79
2022/11/03 03:26:29;;;;;;;12.63;8.73;;;11.90;99.90;;;;;;2613926;54;20414;-80
2022/11/03 03:29:04;;;;;;;15.57;10.67;;;11.90;99.90;;;;;;2613339;47;20435;-80
2022/11/03 03:31:35;;;;;;;9.27;8.27;;;11.80;99.90;;;;;;2611899;54;20398;-80
2022/11/03 03:34:02;;;;;;;9.60;8.70;;;11.90;99.90;;;;;;2614748;39;20811;-79
2022/11/03 03:36:29;;;;;;;8.70;7.90;;;11.80;99.90;;;;;;2613296;54;20986;-79
2022/11/03 03:38:59;;;;;;;13.20;8.97;;;11.80;99.90;;;;;;2613929;54;20434;-78
2022/11/03 03:41:27;;;;;;;9.20;8.00;;;11.80;99.90;;;;;;2614685;54;20442;-78
2022/11/03 03:43:56;;;;;;;8.50;7.80;;;11.80;99.90;;;;;;2616071;39;20811;-78
2022/11/03 03:46:26;;;;;;;14.20;8.10;;;11.80;99.90;;;;;;2614277;46;20426;-80
2022/11/03 03:48:52;;;;;;;7.90;7.40;;;11.80;99.90;;;;;;2613684;54;20431;-79
2022/11/03 03:51:21;;;;;;;9.50;8.80;;;11.70;99.90;;;;;;2613365;47;20418;-77
2022/11/03 03:53:51;;;;;;;10.60;8.37;;;11.90;99.90;;;;;;2613380;47;20163;-77
2022/11/03 03:56:24;;;;;;;10.67;7.80;;;11.80;99.90;;;;;;2613874;54;20395;-79
2022/11/03 03:58:50;;;;;;;9.03;7.67;;;11.90;99.90;;;;;;2615806;54;20450;-78
2022/11/03 04:01:15;;;;;;;13.03;8.50;;;11.90;99.90;;;;;;2616540;54;20419;-77
2022/11/03 04:03:41;;;;;;;8.57;7.43;;;12.00;99.90;;;;;;2614160;54;20163;-77
2022/11/03 04:06:07;;;;;;;10.07;7.90;;;11.90;99.90;;;;;;2616123;54;20725;-78
2022/11/03 04:08:33;;;;;;;7.73;7.00;;;12.00;99.90;;;;;;2616786;54;20682;-80
2022/11/03 04:24:40;;;;;;;12.83;8.53;;;12.00;99.90;;;;;;2614653;54;20409;-77
2022/11/03 04:27:29;;;;;;;14.20;7.60;;;11.90;99.90;;;;;;2621237;54;20395;-89
2022/11/03 04:29:58;;;;;;;8.20;7.07;;;12.00;99.90;;;;;;2622558;54;20392;-88
2022/11/03 04:32:25;;;;;;;11.70;8.03;;;11.90;99.90;;;;;;2617815;54;20469;-80
2022/11/03 04:34:51;;;;;;;13.30;8.37;;;11.90;99.90;;;;;;2618210;54;20423;-79
2022/11/03 04:37:17;;;;;;;7.80;7.00;;;12.00;99.90;;;;;;2616766;54;20491;-80
2022/11/03 04:39:43;;;;;;;13.60;7.77;;;12.00;99.90;;;;;;2614900;54;20394;-80
2022/11/03 04:42:20;;;;;;;12.70;7.50;;;12.00;99.90;;;;;;2612956;47;20198;-79
2022/11/03 04:44:47;;;;;;;9.53;8.50;;;12.00;99.90;;;;;;2613969;54;20192;-79
2022/11/03 04:47:14;;;;;;;9.73;8.50;;;12.00;99.90;;;;;;2615620;54;20538;-84
2022/11/03 04:49:43;;;;;;;8.40;7.27;;;11.90;99.90;;;;;;2620352;54;20424;-85
2022/11/03 04:52:18;;;;;;;10.90;7.70;;;12.00;99.90;;;;;;2613367;46;20413;-77
2022/11/03 04:54:46;;;;;;;7.73;7.10;;;12.00;99.90;;;;;;2614121;54;20411;-77
2022/11/03 04:57:14;;;;;;;13.93;7.73;;;11.90;99.90;;;;;;2618606;39;20791;-88
2022/11/03 04:59:41;;;;;;;11.23;7.03;;;12.00;99.90;;;;;;2619080;54;20477;-87
2022/11/03 05:02:28;;;;;;;7.93;6.87;;;12.00;99.90;;;;;;2617608;39;20478;-83
2022/11/03 05:04:54;;;;;;;8.40;6.90;;;12.00;99.90;;;;;;2617211;54;20411;-83
2022/11/03 05:07:35;;;;;;;8.60;7.80;;;12.10;99.90;;;;;;2613761;54;20423;-77
2022/11/03 05:10:01;;;;;;;13.83;8.37;;;12.10;99.90;;;;;;2613877;54;20166;-76
2022/11/03 05:12:28;;;;;;;10.60;8.40;;;12.20;99.90;;;;;;2613691;54;20436;-78
2022/11/03 05:14:54;;;;;;;13.73;7.97;;;12.20;99.90;;;;;;2614561;54;20907;-78
2022/11/03 05:17:22;;;;;;;10.97;8.60;;;12.10;99.90;;;;;;2616118;54;20410;-81
2022/11/03 05:20:02;;;;;;;14.87;7.77;;;12.10;99.90;;;;;;2615739;39;20556;-80
2022/11/03 05:22:36;;;;;;;8.70;7.90;;;12.20;99.90;;;;;;2620741;54;20486;-88
2022/11/03 05:25:23;;;;;;;8.37;7.53;;;12.30;99.90;;;;;;2621361;47;20414;-86
2022/11/03 05:27:49;;;;;;;11.27;7.60;;;12.20;99.90;;;;;;2614316;46;20431;-79
2022/11/03 05:30:15;;;;;;;15.80;7.30;;;12.20;99.90;;;;;;2613290;54;20402;-80
2022/11/03 05:32:41;;;;;;;9.73;7.90;;;12.30;99.90;;;;;;2614579;54;20147;-78
2022/11/03 05:35:19;;;;;;;9.37;7.90;;;12.30;99.90;;;;;;2613703;54;20179;-77
2022/11/03 05:37:46;;;;;;;9.17;7.10;;;12.30;99.90;;;;;;2616950;39;20926;-84
2022/11/03 05:40:24;;;;;;;8.70;7.80;;;12.40;99.90;;;;;;2617354;54;20407;-83
2022/11/03 05:42:59;;;;;;;16.87;8.00;;;12.30;99.90;;;;;;2618653;54;20458;-83
2022/11/03 05:45:36;;;;;;;8.57;7.80;;;12.30;99.90;;;;;;2618713;54;20502;-79
2022/11/03 05:48:12;;;;;;;8.27;7.50;;;12.40;99.90;;;;;;2615687;39;20811;-79
2022/11/03 05:50:39;;;;;;;12.60;7.33;;;12.40;99.90;;;;;;2614590;54;20435;-79
2022/11/03 05:53:24;;;;;;;9.23;8.30;;;12.40;99.90;;;;;;2614246;54;20420;-79
2022/11/03 05:55:49;;;;;;;11.97;8.50;;;12.50;99.90;;;;;;2616881;54;20511;-83
2022/11/03 05:58:26;;;;;;;10.27;8.47;;;12.40;99.90;;;;;;2616800;54;20415;-84
2022/11/03 06:00:53;;;;;;;12.87;9.00;;;12.50;99.90;;;;;;2616199;46;20174;-82
2022/11/03 06:03:24;;;;;;;12.07;8.27;;;12.40;99.90;;;;;;2616978;54;20412;-83
2022/11/03 06:05:51;;;;;;;8.77;7.97;;;12.60;99.90;;;;;;2616999;54;20396;-83
2022/11/03 06:08:24;;;;;;;10.27;8.80;;;12.60;99.90;;;;;;2616209;54;20411;-80
2022/11/03 06:10:55;;;;;;;11.60;8.00;;;12.50;99.90;;;;;;2616396;54;20419;-81
2022/11/03 06:13:38;;;;;;;9.80;8.53;;;12.50;99.90;;;;;;2615332;54;20498;-80
2022/11/03 06:16:30;;;;;;;8.40;7.90;;;12.60;99.90;;;;;;2614860;47;20558;-77
2022/11/03 06:18:56;;;;;;;10.17;8.57;;;12.50;99.90;;;;;;2614274;54;20387;-77
2022/11/03 06:21:25;;;;;;;9.33;8.50;;;12.50;99.90;;;;;;2615548;54;20442;-82
2022/11/03 06:23:52;;;;;;;9.93;8.70;;;12.70;99.90;;;;;;2616600;47;20170;-83
2022/11/03 06:26:21;;;;;;;11.30;8.47;;;12.60;99.90;;;;;;2616416;39;20787;-79
2022/11/03 06:28:48;;;;;;;10.90;8.30;;;12.60;99.90;;;;;;2614477;39;20879;-79
2022/11/03 06:31:28;;;;;;;12.83;9.27;;;12.60;99.90;;;;;;2614225;47;20418;-76
2022/11/03 06:33:56;;;;;;;8.33;7.73;;;12.70;99.90;;;;;;2613344;54;20399;-75
2022/11/03 06:36:29;;;;;;;17.63;8.50;;;12.60;99.90;;;;;;2613858;39;20860;-77
2022/11/03 06:39:00;;;;;;;10.43;8.33;;;12.70;99.90;;;;;;2613724;54;20402;-77
2022/11/03 06:41:27;;;;;;;11.17;8.27;;;12.70;99.90;;;;;;2614321;54;20391;-78
2022/11/03 06:43:54;;;;;;;9.17;8.37;;;12.70;99.90;;;;;;2611568;54;20969;-76
2022/11/03 06:46:25;;;;;;;9.47;8.40;;;12.70;99.90;;;;;;2614683;54;20403;-76
2022/11/03 06:48:56;;;;;;;11.53;8.33;;;12.70;99.90;;;;;;2616342;47;20419;-77
2022/11/03 06:51:27;;;;;;;11.73;9.50;;;12.80;99.90;;;;;;2615099;54;21046;-81
2022/11/03 06:53:56;;;;;;;9.30;8.60;;;12.70;99.90;;;;;;2615864;54;20408;-78
2022/11/03 06:56:25;;;;;;;9.00;8.33;;;12.80;99.90;;;;;;2615004;47;20431;-78
2022/11/03 06:58:53;;;;;;;10.10;9.37;;;12.80;99.90;;;;;;2612790;54;20423;-79
2022/11/03 07:01:34;;;;;;;9.07;8.00;;;12.80;99.90;;;;;;2618090;39;20819;-90
2022/11/03 07:04:11;;;;;;;8.73;7.60;;;12.80;99.90;;;;;;2620369;54;20395;-88
2022/11/03 07:06:37;;;;;;;10.57;9.50;;;12.70;99.90;;;;;;2617523;54;20474;-78
2022/11/03 07:09:12;;;;;;;9.60;8.27;;;12.80;99.90;;;;;;2614684;54;20411;-79
2022/11/03 07:11:50;;;;;;;13.07;8.10;;;12.80;99.90;;;;;;2615665;54;20146;-87
2022/11/03 07:14:23;;;;;;;10.23;9.27;;;12.80;99.90;;;;;;2617517;54;20399;-87
2022/11/03 07:16:53;;;;;;;9.47;8.60;;;12.80;99.90;;;;;;2616342;47;20429;-82
2022/11/03 07:19:22;;;;;;;9.30;8.40;;;12.80;99.90;;;;;;2615939;39;20782;-82
2022/11/03 07:21:59;;;;;;;9.90;9.00;;;12.80;99.90;;;;;;2614794;39;20834;-80
2022/11/03 07:24:38;;;;;;;10.83;8.43;;;12.80;99.90;;;;;;2613649;54;20395;-81
2022/11/03 07:27:21;;;;;;;10.03;9.00;;;12.80;99.90;;;;;;2614894;54;20411;-79
2022/11/03 07:29:48;;;;;;;10.53;9.73;;;12.90;99.90;;;;;;2614575;54;20411;-79
2022/11/03 07:32:33;;;;;;;9.30;8.57;;;12.80;99.90;;;;;;2613305;54;20423;-78
2022/11/03 07:35:05;;;;;;;11.23;8.83;;;12.90;99.90;;;;;;2613553;47;20419;-79
2022/11/03 07:37:33;;;;;;;9.93;9.03;;;12.90;99.90;;;;;;2621206;54;21026;-87
2022/11/03 07:39:59;;;;;;;10.80;9.83;;;12.90;99.90;;;;;;2629009;54;20406;-86
2022/11/03 07:42:26;;;;;;;10.33;9.43;;;13.00;99.90;;;;;;2618642;54;20419;-80
2022/11/03 07:44:54;;;;;;;11.97;9.57;;;13.00;99.90;;;;;;2616690;54;20703;-83
2022/11/03 07:47:26;;;;;;;10.50;9.60;;;13.10;99.90;;;;;;2617165;54;20408;-85
2022/11/03 07:49:53;;;;;;;10.50;9.20;;;13.10;99.90;;;;;;2616541;47;20402;-85
2022/11/03 07:52:21;;;;;;;11.37;10.27;;;13.30;99.90;;;;;;2614876;54;20454;-77
2022/11/03 07:54:48;;;;;;;14.83;10.30;;;13.40;99.90;;;;;;2614560;47;20415;-78
2022/11/03 07:57:19;;;;;;;10.67;9.80;;;13.80;99.90;;;;;;2618553;54;20423;-88
2022/11/03 07:59:48;;;;;;;11.30;10.20;;;14.60;93.40;;;;;;2618058;54;20439;-85
2022/11/03 08:02:32;;;;;;;10.80;10.10;;;15.30;84.70;;;;;;2613763;54;20435;-81
2022/11/03 08:04:58;;;;;;;15.53;10.67;;;14.90;83.90;;;;;;2614459;54;20442;-79
2022/11/03 08:07:24;;;;;;;12.57;11.57;;;14.70;88.20;;;;;;2614773;54;20415;-82
2022/11/03 08:09:50;;;;;;;11.90;11.10;;;14.40;91.10;;;;;;2615846;54;20431;-82
2022/11/03 08:12:16;;;;;;;12.10;11.00;;;14.90;85.20;;;;;;2613645;39;20883;-78
2022/11/03 08:14:43;;;;;;;11.03;10.13;;;14.90;84.50;;;;;;2613994;54;20419;-78
2022/11/03 08:17:08;;;;;;;15.00;11.10;;;14.70;87.70;;;;;;2617126;54;20158;-87
2022/11/03 08:19:34;;;;;;;13.03;11.63;;;14.90;83.60;;;;;;2617792;47;20424;-85
2022/11/03 08:22:00;;;;;;;12.67;11.50;;;14.80;85.20;;;;;;2621004;54;20183;-86
2022/11/03 08:24:25;;;;;;;10.53;9.60;;;14.70;83.10;;;;;;2618633;54;20163;-85
2022/11/03 08:26:51;;;;;;;12.37;11.10;;;14.90;84.00;;;;;;2615691;54;20178;-81
2022/11/03 08:29:17;;;;;;;11.23;10.63;;;14.70;84.50;;;;;;2614851;47;20205;-80
2022/11/03 08:31:43;;;;;;;11.30;10.60;;;14.50;87.20;;;;;;2614470;54;20785;-79
2022/11/03 08:34:09;;;;;;;11.03;10.00;;;14.40;87.20;;;;;;2614120;54;20154;-79
2022/11/03 08:36:35;;;;;;;11.60;10.63;;;14.40;87.50;;;;;;2613581;54;20423;-79
2022/11/03 08:39:01;;;;;;;10.20;9.60;;;14.30;89.60;;;;;;2613869;54;20485;-78
2022/11/03 08:41:26;;;;;;;12.40;11.20;;;14.30;89.60;;;;;;2615451;39;20718;-82
2022/11/03 08:43:52;;;;;;;11.40;10.37;;;14.30;90.30;;;;;;2614928;54;20192;-81
2022/11/03 08:46:17;;;;;;;12.13;11.10;;;14.30;90.50;;;;;;2613577;47;20171;-78
2022/11/03 08:48:43;;;;;;;12.20;11.17;;;14.20;90.70;;;;;;2611454;54;20193;-78
2022/11/03 08:51:12;;;;;;;14.53;9.80;;;14.40;90.60;;;;;;2613953;54;20170;-80
2022/11/03 08:53:38;;;;;;;11.70;10.90;;;14.60;89.90;;;;;;2612374;54;20474;-80
2022/11/03 08:56:04;;;;;;;10.03;9.20;;;14.60;86.50;;;;;;2614193;54;20408;-79
2022/11/03 08:58:30;;;;;;;10.53;9.73;;;14.70;84.30;;;;;;2612754;54;20986;-80
2022/11/03 09:00:56;;;;;;;11.13;10.40;;;14.70;83.80;;;;;;2616894;54;20867;-83
2022/11/03 09:03:22;;;;;;;10.60;10.00;;;14.70;82.90;;;;;;2615255;47;20458;-82
2022/11/03 09:05:48;;;;;;;10.53;9.73;;;15.00;80.00;;;;;;2614634;39;20561;-78
2022/11/03 09:08:14;;;;;;;11.93;10.80;;;15.10;76.10;;;;;;2613645;54;20499;-79
2022/11/03 09:10:39;;;;;;;12.40;11.20;;;15.20;75.80;;;;;;2615909;47;20158;-89
2022/11/03 09:13:05;;;;;;;10.80;10.13;;;15.20;74.00;;;;;;2624519;54;20175;-89
2022/11/03 09:15:32;;;;;;;11.80;11.00;;;14.90;75.70;;;;;;2622285;54;20167;-86
2022/11/03 09:17:58;;;;;;;11.70;10.60;;;15.00;76.00;;;;;;2616722;54;20474;-86
2022/11/03 09:20:23;;;;;;;10.57;9.83;;;15.10;76.10;;;;;;2617226;54;20406;-78
2022/11/03 09:22:50;;;;;;;11.40;10.70;;;15.00;75.20;;;;;;2614070;54;20194;-78
2022/11/03 09:25:16;;;;;;;13.70;12.37;;;15.20;75.10;;;;;;2614096;54;20188;-80
2022/11/03 09:27:41;;;;;;;12.67;11.47;;;15.10;76.40;;;;;;2612827;54;20435;-79
2022/11/03 09:30:07;;;;;;;12.13;10.93;;;15.00;73.90;;;;;;2613875;39;20546;-78
2022/11/03 09:32:33;;;;;;;14.47;10.13;;;15.00;75.90;;;;;;2614188;39;20277;-82
2022/11/03 09:34:59;;;;;;;11.37;10.57;;;15.30;74.70;;;;;;2615239;54;20424;-80
2022/11/03 09:37:25;;;;;;;10.77;9.97;;;15.70;65.90;;;;;;2614855;54;20445;-81
2022/11/03 09:39:50;;;;;;;11.07;10.17;;;15.80;65.10;;;;;;2614241;54;20147;-83
2022/11/03 09:42:17;;;;;;;12.00;11.00;;;16.30;62.80;;;;;;2618176;46;20181;-88
2022/11/03 09:44:45;;;;;;;11.53;10.67;;;15.90;58.40;;;;;;2618208;47;20169;-85
2022/11/03 09:47:21;;;;;;;11.43;10.73;;;15.80;58.10;;;;;;2615494;39;20912;-79
2022/11/03 09:49:46;;;;;;;13.33;12.27;;;15.80;57.90;;;;;;2614407;54;20417;-78
2022/11/03 09:52:18;;;;;;;10.90;10.30;;;15.90;56.90;;;;;;2612833;54;20408;-76
2022/11/03 09:54:44;;;;;;;11.93;11.00;;;15.80;58.40;;;;;;2612024;47;20169;-76
2022/11/03 09:57:13;;;;;;;10.20;9.60;;;16.10;55.10;;;;;;2612796;39;20857;-77
2022/11/03 09:59:42;;;;;;;10.77;9.97;;;16.00;53.40;;;;;;2612743;46;20163;-75
2022/11/03 10:02:20;;;;;;;12.67;11.37;;;15.90;54.20;;;;;;2613918;47;20439;-79
2022/11/03 10:04:46;;;;;;;12.43;10.47;;;15.90;53.50;;;;;;2614474;54;20446;-80
2022/11/03 10:07:12;;;;;;;11.10;9.93;;;15.90;53.10;;;;;;2613739;47;20431;-78
2022/11/03 10:09:44;;;;;;;11.20;10.40;;;15.80;52.80;;;;;;2614483;39;20659;-78
2022/11/03 10:12:10;;;;;;;10.37;9.70;;;16.10;51.80;;;;;;2614396;47;20175;-80
2022/11/03 10:14:36;;;;;;;10.47;9.67;;;16.10;49.20;;;;;;2614816;54;20531;-80
2022/11/03 10:17:01;;;;;;;11.10;10.20;;;16.20;47.80;;;;;;2615349;46;20438;-82
2022/11/03 10:19:27;;;;;;;11.70;10.80;;;16.10;47.50;;;;;;2614190;54;20178;-81
2022/11/03 10:21:53;;;;;;;11.83;11.03;;;15.90;48.70;;;;;;2614546;54;20586;-78
2022/11/03 10:24:19;;;;;;;12.10;11.40;;;16.00;48.10;;;;;;2613918;54;20155;-79
2022/11/03 10:26:55;;;;;;;10.70;9.90;;;15.90;48.30;;;;;;2613600;54;20182;-80
2022/11/03 10:29:22;;;;;;;12.07;11.10;;;16.00;46.70;;;;;;2614814;54;20162;-80
2022/11/03 10:31:51;;;;;;;10.70;9.90;;;16.10;45.20;;;;;;2613719;54;21024;-81
2022/11/03 10:34:38;;;;;;;14.70;10.70;;;16.00;44.50;;;;;;2613889;46;20454;-75
2022/11/03 10:37:22;;;;;;;15.67;10.70;;;16.00;43.60;;;;;;2614976;54;20401;-78
2022/11/03 10:39:52;;;;;;;11.97;10.97;;;15.90;44.60;;;;;;2614711;47;20420;-79
2022/11/03 10:42:21;;;;;;;12.03;10.77;;;16.00;44.80;;;;;;2617449;39;20850;-80
2022/11/03 10:44:49;;;;;;;11.73;10.60;;;15.80;43.90;;;;;;2616232;54;21210;-81
2022/11/03 10:47:31;;;;;;;11.27;10.47;;;16.00;44.90;;;;;;2620189;39;20821;-86
2022/11/03 10:49:57;;;;;;;10.60;9.93;;;16.00;44.00;;;;;;2618537;54;20415;-86
2022/11/03 10:52:25;;;;;;;11.63;10.80;;;16.10;44.10;;;;;;2613019;54;20411;-81
2022/11/03 10:54:53;;;;;;;11.37;10.67;;;16.00;43.90;;;;;;2614481;54;20423;-81
2022/11/03 10:57:20;;;;;;;11.10;10.23;;;16.00;43.10;;;;;;2613468;54;20427;-81
2022/11/03 10:59:48;;;;;;;10.50;9.60;;;16.00;43.80;;;;;;2615280;54;20424;-81
2022/11/03 11:02:30;;;;;;;11.67;11.03;;;16.10;41.70;;;;;;2612613;54;20439;-79
2022/11/03 11:05:01;;;;;;;11.30;10.60;;;16.10;42.10;;;;;;2612691;54;20441;-79
2022/11/03 11:07:35;;;;;;;10.77;10.17;;;16.10;41.10;;;;;;2614211;54;20842;-82
2022/11/03 11:10:16;;;;;;;11.20;10.50;;;16.20;41.50;;;;;;2614527;54;20374;-81
2022/11/03 11:13:17;;;;;;;11.20;10.27;;;16.10;40.90;;;;;;2613224;54;20475;-81
2022/11/03 11:15:44;;;;;;;11.67;10.80;;;16.60;39.40;;;;;;2613977;54;20396;-77
2022/11/03 11:18:30;;;;;;;12.57;11.43;;;16.80;38.30;;;;;;2611890;54;20423;-77
2022/11/03 11:21:00;;;;;;;11.93;10.90;;;16.50;39.40;;;;;;2612730;54;20955;-81
2022/11/03 11:23:26;;;;;;;12.40;11.50;;;17.00;38.00;;;;;;2614522;47;20455;-81
2022/11/03 11:26:13;;;;;;;11.20;10.43;;;17.40;35.90;;;;;;2614943;54;20986;-78
2022/11/03 11:28:44;;;;;;;11.77;10.73;;;18.50;30.90;;;;;;2614205;54;20166;-78
2022/11/03 11:31:25;;;;;;;12.20;11.40;;;20.20;26.20;;;;;;2614781;54;20526;-82
2022/11/03 11:34:11;;;;;;;11.97;11.13;;;20.10;24.30;;;;;;2620968;54;20420;-82
2022/11/03 11:36:42;;;;;;;11.40;10.60;;;18.90;25.70;;;;;;2625291;54;20420;-89
2022/11/03 11:39:39;;;;;;;12.33;11.57;;;18.70;25.60;;;;;;2625636;54;20408;-90
2022/11/03 11:42:19;;;;;;;11.40;10.80;;;20.20;24.20;;;;;;2615409;54;20510;-80
2022/11/03 11:45:02;;;;;;;11.57;10.97;;;20.30;23.00;;;;;;2614243;54;20402;-80
2022/11/03 11:47:39;;;;;;;12.80;11.63;;;20.50;23.00;;;;;;2617482;54;20403;-85
2022/11/03 11:50:05;;;;;;;11.97;11.00;;;19.70;22.80;;;;;;2617547;39;20938;-86
2022/11/03 11:52:51;;;;;;;12.50;11.60;;;20.50;22.00;;;;;;2617303;54;20420;-88
2022/11/03 11:55:23;;;;;;;12.60;11.80;;;20.90;22.80;;;;;;2617926;54;20157;-78
2022/11/03 11:57:49;;;;;;;12.80;11.80;;;20.80;21.40;;;;;;2613360;54;20419;-78
2022/11/03 12:00:24;;;;;;;13.00;12.20;;;21.00;21.60;;;;;;2613234;54;20535;-79
2022/11/03 12:02:55;;;;;;;12.00;11.30;;;19.90;20.90;;;;;;2614767;49;20415;-79
2022/11/03 12:05:27;;;;;;;12.23;11.07;;;19.50;22.00;;;;;;2615946;54;20383;-88
2022/11/03 12:07:54;;;;;;;10.97;10.37;;;20.00;21.90;;;;;;2618388;47;20400;-86
2022/11/03 12:10:25;;;;;;;10.20;9.70;;;19.90;22.00;;;;;;2618721;54;20461;-82
2022/11/03 12:12:57;;;;;;;12.53;11.47;;;20.20;21.90;;;;;;2614864;54;20419;-80
2022/11/03 12:15:53;;;;;;;11.20;10.50;;;20.10;22.70;;;;;;2615570;54;20391;-87
2022/11/03 12:18:38;;;;;;;11.07;10.47;;;17.50;25.50;;;;;;2620414;54;20778;-89
2022/11/03 12:21:14;;;;;;;11.80;10.93;;;17.10;27.20;;;;;;2619418;54;20426;-85
2022/11/03 12:23:45;;;;;;;10.73;10.07;;;17.00;28.80;;;;;;2617426;54;20999;-87
2022/11/03 12:26:26;;;;;;;12.10;11.40;;;16.80;29.80;;;;;;2615464;54;20458;-79
2022/11/03 12:28:52;;;;;;;12.13;11.43;;;16.50;32.20;;;;;;2614412;39;22701;-80
2022/11/03 12:31:17;;;;;;;11.03;10.43;;;16.40;31.90;;;;;;2612912;54;20427;-79
2022/11/03 12:33:43;;;;;;;13.47;12.27;;;16.40;33.50;;;;;;2615159;54;20442;-78
2022/11/03 12:36:09;;;;;;;11.00;10.40;;;16.50;33.60;;;;;;2616133;54;20242;-88
2022/11/03 12:38:36;;;;;;;12.97;11.87;;;16.40;35.20;;;;;;2624669;54;20147;-88
2022/11/03 12:41:20;;;;;;;11.33;10.60;;;16.40;35.30;;;;;;2621176;54;20414;-80
2022/11/03 12:43:52;;;;;;;11.60;10.80;;;16.50;34.00;;;;;;2617012;39;20869;-80
2022/11/03 12:46:19;;;;;;;11.27;10.30;;;16.60;34.80;;;;;;2619123;39;21127;-87
2022/11/03 12:48:46;;;;;;;11.93;10.93;;;16.90;34.50;;;;;;2617700;54;20426;-86
2022/11/03 12:51:14;;;;;;;10.77;10.03;;;17.10;32.80;;;;;;2616145;47;20535;-79
2022/11/03 12:53:40;;;;;;;12.17;11.30;;;17.00;33.20;;;;;;2613296;54;20410;-80
2022/11/03 12:56:06;;;;;;;12.17;10.97;;;17.90;30.10;;;;;;2614884;54;20403;-77
2022/11/03 12:58:32;;;;;;;11.63;11.03;;;17.80;30.20;;;;;;2614284;54;20446;-77
2022/11/03 13:00:58;;;;;;;11.40;10.70;;;18.20;29.10;;;;;;2614737;47;20411;-78
2022/11/03 13:03:24;;;;;;;11.63;11.10;;;17.30;31.60;;;;;;2616175;46;20481;-79
2022/11/03 13:05:50;;;;;;;11.83;10.93;;;16.90;32.40;;;;;;2614661;47;20198;-79
2022/11/03 13:08:15;;;;;;;12.43;11.30;;;16.90;33.50;;;;;;2612858;47;20309;-78
2022/11/03 13:10:41;;;;;;;11.97;11.37;;;17.00;33.00;;;;;;2614172;54;20205;-81
2022/11/03 13:13:06;;;;;;;12.30;11.43;;;16.40;35.40;;;;;;2615001;54;20142;-81